Terminal Aerodrome Forecast
Issued by NWS

Current Version | Previous Version | Text Only | Print | Product List | Glossary On
Versions: 1 2 3 4 5 6 7 8 9 10 11 12 13 14 15 16
000
FTUS46 KSEW 212300
TAFPAE
TAF
KPAE 212334Z 2200/2224 25010KT P6SM SKC
     FM220300 34005KT P6SM FEW050
     FM220600 01004KT P6SM SCT040
     FM221200 33003KT P6SM BKN020
      TEMPO 2212/2215 P6SM OVC015
     FM221800 35007KT P6SM SCT250=

USA.gov is the U.S. government's official web portal to all federal, state and local government web resources and services.